sensor_id;sensor_type;location;lat;lon;timestamp;temperature;humidity
10802;DHT22;5453;50.852;7.102;2023-12-14T00:01:23;8.90;99.90
10802;DHT22;5453;50.852;7.102;2023-12-14T00:03:55;8.80;99.90
10802;DHT22;5453;50.852;7.102;2023-12-14T00:06:29;8.80;99.90
10802;DHT22;5453;50.852;7.102;2023-12-14T00:09:02;8.90;99.90
10802;DHT22;5453;50.852;7.102;2023-12-14T00:11:37;8.80;99.90
10802;DHT22;5453;50.852;7.102;2023-12-14T00:14:10;8.80;99.90
10802;DHT22;5453;50.852;7.102;2023-12-14T00:16:43;8.90;99.90
10802;DHT22;5453;50.852;7.102;2023-12-14T00:19:15;8.80;99.90
10802;DHT22;5453;50.852;7.102;2023-12-14T00:21:49;8.80;99.90
10802;DHT22;5453;50.852;7.102;2023-12-14T00:24:28;8.80;99.90
10802;DHT22;5453;50.852;7.102;2023-12-14T00:27:00;8.80;99.90
10802;DHT22;5453;50.852;7.102;2023-12-14T00:29:33;8.80;99.90
10802;DHT22;5453;50.852;7.102;2023-12-14T00:32:06;8.80;99.90
10802;DHT22;5453;50.852;7.102;2023-12-14T00:34:41;8.80;99.90
10802;DHT22;5453;50.852;7.102;2023-12-14T00:37:15;8.80;99.90
10802;DHT22;5453;50.852;7.102;2023-12-14T00:39:47;8.80;99.90
10802;DHT22;5453;50.852;7.102;2023-12-14T00:42:20;8.80;99.90
10802;DHT22;5453;50.852;7.102;2023-12-14T00:44:52;8.80;99.90
10802;DHT22;5453;50.852;7.102;2023-12-14T00:47:24;8.80;99.90
10802;DHT22;5453;50.852;7.102;2023-12-14T00:49:57;8.80;99.90
10802;DHT22;5453;50.852;7.102;2023-12-14T00:52:31;8.80;99.90
10802;DHT22;5453;50.852;7.102;2023-12-14T00:55:04;8.80;99.90
10802;DHT22;5453;50.852;7.102;2023-12-14T00:57:37;8.80;99.90
10802;DHT22;5453;50.852;7.102;2023-12-14T01:00:10;8.90;99.90
10802;DHT22;5453;50.852;7.102;2023-12-14T01:02:43;8.80;99.90
10802;DHT22;5453;50.852;7.102;2023-12-14T01:05:16;8.80;99.90
10802;DHT22;5453;50.852;7.102;2023-12-14T01:07:50;8.90;99.90
10802;DHT22;5453;50.852;7.102;2023-12-14T01:10:22;8.90;99.90
10802;DHT22;5453;50.852;7.102;2023-12-14T01:12:55;8.90;99.90
10802;DHT22;5453;50.852;7.102;2023-12-14T01:15:27;8.90;99.90
10802;DHT22;5453;50.852;7.102;2023-12-14T01:17:59;8.90;99.90
10802;DHT22;5453;50.852;7.102;2023-12-14T01:20:32;8.80;99.90
10802;DHT22;5453;50.852;7.102;2023-12-14T01:23:05;8.80;99.90
10802;DHT22;5453;50.852;7.102;2023-12-14T01:25:40;8.80;99.90
10802;DHT22;5453;50.852;7.102;2023-12-14T01:28:12;8.80;99.90
10802;DHT22;5453;50.852;7.102;2023-12-14T01:30:45;8.80;99.90
10802;DHT22;5453;50.852;7.102;2023-12-14T01:33:18;8.80;99.90
10802;DHT22;5453;50.852;7.102;2023-12-14T01:35:50;8.90;99.90
10802;DHT22;5453;50.852;7.102;2023-12-14T01:38:24;8.80;99.90
10802;DHT22;5453;50.852;7.102;2023-12-14T01:40:56;8.80;99.90
10802;DHT22;5453;50.852;7.102;2023-12-14T01:43:30;8.80;99.90
10802;DHT22;5453;50.852;7.102;2023-12-14T01:46:02;8.80;99.90
10802;DHT22;5453;50.852;7.102;2023-12-14T01:48:38;8.80;99.90
10802;DHT22;5453;50.852;7.102;2023-12-14T01:51:10;8.80;99.90
10802;DHT22;5453;50.852;7.102;2023-12-14T01:53:44;8.80;99.90
10802;DHT22;5453;50.852;7.102;2023-12-14T01:56:16;8.90;99.90
10802;DHT22;5453;50.852;7.102;2023-12-14T01:58:49;8.80;99.90
10802;DHT22;5453;50.852;7.102;2023-12-14T02:01:26;8.80;99.90
10802;DHT22;5453;50.852;7.102;2023-12-14T02:04:01;8.80;99.90
10802;DHT22;5453;50.852;7.102;2023-12-14T02:06:34;8.80;99.90
10802;DHT22;5453;50.852;7.102;2023-12-14T02:09:08;8.80;99.90
10802;DHT22;5453;50.852;7.102;2023-12-14T02:11:40;8.90;99.90
10802;DHT22;5453;50.852;7.102;2023-12-14T02:14:13;8.90;99.90
10802;DHT22;5453;50.852;7.102;2023-12-14T02:16:45;8.90;99.90
10802;DHT22;5453;50.852;7.102;2023-12-14T02:19:17;8.90;99.90
10802;DHT22;5453;50.852;7.102;2023-12-14T02:21:50;8.90;99.90
10802;DHT22;5453;50.852;7.102;2023-12-14T02:24:24;8.90;99.90
10802;DHT22;5453;50.852;7.102;2023-12-14T02:26:57;8.90;99.90
10802;DHT22;5453;50.852;7.102;2023-12-14T02:29:29;8.90;99.90
10802;DHT22;5453;50.852;7.102;2023-12-14T02:32:01;8.90;99.90
10802;DHT22;5453;50.852;7.102;2023-12-14T02:34:34;9.00;99.90
10802;DHT22;5453;50.852;7.102;2023-12-14T02:37:06;9.00;99.90
10802;DHT22;5453;50.852;7.102;2023-12-14T02:39:40;9.00;99.90
10802;DHT22;5453;50.852;7.102;2023-12-14T02:42:12;9.00;99.90
10802;DHT22;5453;50.852;7.102;2023-12-14T02:44:46;9.00;99.90
10802;DHT22;5453;50.852;7.102;2023-12-14T02:47:19;9.00;99.90
10802;DHT22;5453;50.852;7.102;2023-12-14T02:49:51;9.00;99.90
10802;DHT22;5453;50.852;7.102;2023-12-14T02:52:24;9.00;99.90
10802;DHT22;5453;50.852;7.102;2023-12-14T02:54:58;9.10;99.90
10802;DHT22;5453;50.852;7.102;2023-12-14T02:57:30;9.10;99.90
10802;DHT22;5453;50.852;7.102;2023-12-14T03:00:03;9.10;99.90
10802;DHT22;5453;50.852;7.102;2023-12-14T03:02:36;9.10;99.90
10802;DHT22;5453;50.852;7.102;2023-12-14T03:05:09;9.10;99.90
10802;DHT22;5453;50.852;7.102;2023-12-14T03:07:41;9.10;99.90
10802;DHT22;5453;50.852;7.102;2023-12-14T03:10:15;9.10;99.90
10802;DHT22;5453;50.852;7.102;2023-12-14T03:12:47;9.10;99.90
10802;DHT22;5453;50.852;7.102;2023-12-14T03:15:20;9.10;99.90
10802;DHT22;5453;50.852;7.102;2023-12-14T03:17:53;9.10;99.90
10802;DHT22;5453;50.852;7.102;2023-12-14T03:20:25;9.10;99.90
10802;DHT22;5453;50.852;7.102;2023-12-14T03:22:57;9.20;99.90
10802;DHT22;5453;50.852;7.102;2023-12-14T03:25:31;9.10;99.90
10802;DHT22;5453;50.852;7.102;2023-12-14T03:28:04;9.10;99.90
10802;DHT22;5453;50.852;7.102;2023-12-14T03:30:36;9.10;99.90
10802;DHT22;5453;50.852;7.102;2023-12-14T03:33:08;9.10;99.90
10802;DHT22;5453;50.852;7.102;2023-12-14T03:35:41;9.10;99.90
10802;DHT22;5453;50.852;7.102;2023-12-14T03:38:14;9.10;99.90
10802;DHT22;5453;50.852;7.102;2023-12-14T03:40:48;9.20;99.90
10802;DHT22;5453;50.852;7.102;2023-12-14T03:43:20;9.10;99.90
10802;DHT22;5453;50.852;7.102;2023-12-14T03:45:53;9.10;99.90
10802;DHT22;5453;50.852;7.102;2023-12-14T03:48:26;9.10;99.90
10802;DHT22;5453;50.852;7.102;2023-12-14T03:51:02;9.10;99.90
10802;DHT22;5453;50.852;7.102;2023-12-14T03:53:35;9.00;99.90
10802;DHT22;5453;50.852;7.102;2023-12-14T03:56:10;9.10;99.90
10802;DHT22;5453;50.852;7.102;2023-12-14T03:58:42;9.00;99.90
10802;DHT22;5453;50.852;7.102;2023-12-14T04:01:18;8.90;99.90
10802;DHT22;5453;50.852;7.102;2023-12-14T04:03:51;8.90;99.90
10802;DHT22;5453;50.852;7.102;2023-12-14T04:06:24;8.90;99.90
10802;DHT22;5453;50.852;7.102;2023-12-14T04:08:57;8.80;99.90
10802;DHT22;5453;50.852;7.102;2023-12-14T04:11:30;8.80;99.90
10802;DHT22;5453;50.852;7.102;2023-12-14T04:14:03;8.80;99.90
10802;DHT22;5453;50.852;7.102;2023-12-14T04:16:35;8.80;99.90
10802;DHT22;5453;50.852;7.102;2023-12-14T04:19:07;8.80;99.90
10802;DHT22;5453;50.852;7.102;2023-12-14T04:21:41;8.80;99.90
10802;DHT22;5453;50.852;7.102;2023-12-14T04:24:13;8.70;99.90
10802;DHT22;5453;50.852;7.102;2023-12-14T04:26:47;8.70;99.90
10802;DHT22;5453;50.852;7.102;2023-12-14T04:29:19;8.70;99.90
10802;DHT22;5453;50.852;7.102;2023-12-14T04:31:52;8.60;99.90
10802;DHT22;5453;50.852;7.102;2023-12-14T04:34:25;8.60;99.90
10802;DHT22;5453;50.852;7.102;2023-12-14T04:36:58;8.60;99.90
10802;DHT22;5453;50.852;7.102;2023-12-14T04:39:30;8.60;99.90
10802;DHT22;5453;50.852;7.102;2023-12-14T04:42:04;8.60;99.90
10802;DHT22;5453;50.852;7.102;2023-12-14T04:44:37;8.60;99.90
10802;DHT22;5453;50.852;7.102;2023-12-14T04:47:09;8.50;99.90
10802;DHT22;5453;50.852;7.102;2023-12-14T04:49:42;8.50;99.90
10802;DHT22;5453;50.852;7.102;2023-12-14T04:52:14;8.50;99.90
10802;DHT22;5453;50.852;7.102;2023-12-14T04:54:47;8.50;99.90
10802;DHT22;5453;50.852;7.102;2023-12-14T04:57:21;8.50;99.90
10802;DHT22;5453;50.852;7.102;2023-12-14T04:59:53;8.50;99.90
10802;DHT22;5453;50.852;7.102;2023-12-14T05:02:25;8.50;99.90
10802;DHT22;5453;50.852;7.102;2023-12-14T05:05:01;8.40;99.90
10802;DHT22;5453;50.852;7.102;2023-12-14T05:07:34;8.50;99.90
10802;DHT22;5453;50.852;7.102;2023-12-14T05:10:07;8.50;99.90
10802;DHT22;5453;50.852;7.102;2023-12-14T05:12:41;8.50;99.90
10802;DHT22;5453;50.852;7.102;2023-12-14T05:15:17;8.50;99.90
10802;DHT22;5453;50.852;7.102;2023-12-14T05:17:50;8.50;99.90
10802;DHT22;5453;50.852;7.102;2023-12-14T05:20:22;8.50;99.90
10802;DHT22;5453;50.852;7.102;2023-12-14T05:22:55;8.50;99.90
10802;DHT22;5453;50.852;7.102;2023-12-14T05:25:27;8.50;99.90
10802;DHT22;5453;50.852;7.102;2023-12-14T05:28:01;8.50;99.90
10802;DHT22;5453;50.852;7.102;2023-12-14T05:30:33;8.50;99.90
10802;DHT22;5453;50.852;7.102;2023-12-14T05:33:06;8.50;99.90
10802;DHT22;5453;50.852;7.102;2023-12-14T05:35:38;8.50;99.90
10802;DHT22;5453;50.852;7.102;2023-12-14T05:38:10;8.50;99.90
10802;DHT22;5453;50.852;7.102;2023-12-14T05:40:43;8.50;99.90
10802;DHT22;5453;50.852;7.102;2023-12-14T05:43:20;8.50;99.90
10802;DHT22;5453;50.852;7.102;2023-12-14T05:45:52;8.40;99.90
10802;DHT22;5453;50.852;7.102;2023-12-14T05:48:25;8.40;99.90
10802;DHT22;5453;50.852;7.102;2023-12-14T05:51:00;8.40;99.90
10802;DHT22;5453;50.852;7.102;2023-12-14T05:53:32;8.30;99.90
10802;DHT22;5453;50.852;7.102;2023-12-14T05:56:08;8.30;99.90
10802;DHT22;5453;50.852;7.102;2023-12-14T05:58:42;8.30;99.90
10802;DHT22;5453;50.852;7.102;2023-12-14T06:01:16;8.30;99.90
10802;DHT22;5453;50.852;7.102;2023-12-14T06:03:49;8.30;99.90
10802;DHT22;5453;50.852;7.102;2023-12-14T06:06:22;8.30;99.90
10802;DHT22;5453;50.852;7.102;2023-12-14T06:08:54;8.30;99.90
10802;DHT22;5453;50.852;7.102;2023-12-14T06:11:27;8.20;99.90
10802;DHT22;5453;50.852;7.102;2023-12-14T06:14:00;8.30;99.90
10802;DHT22;5453;50.852;7.102;2023-12-14T06:16:33;8.20;99.90
10802;DHT22;5453;50.852;7.102;2023-12-14T06:19:05;8.20;99.90
10802;DHT22;5453;50.852;7.102;2023-12-14T06:21:37;8.20;99.90
10802;DHT22;5453;50.852;7.102;2023-12-14T06:24:10;8.20;99.90
10802;DHT22;5453;50.852;7.102;2023-12-14T06:26:42;8.20;99.90
10802;DHT22;5453;50.852;7.102;2023-12-14T06:29:19;8.20;99.90
10802;DHT22;5453;50.852;7.102;2023-12-14T06:31:52;8.20;99.90
10802;DHT22;5453;50.852;7.102;2023-12-14T06:34:24;8.20;99.90
10802;DHT22;5453;50.852;7.102;2023-12-14T06:36:57;8.20;99.90
10802;DHT22;5453;50.852;7.102;2023-12-14T06:39:30;8.20;99.90
10802;DHT22;5453;50.852;7.102;2023-12-14T06:42:03;8.20;99.90
10802;DHT22;5453;50.852;7.102;2023-12-14T06:44:37;8.20;99.90
10802;DHT22;5453;50.852;7.102;2023-12-14T06:47:13;8.20;99.90
10802;DHT22;5453;50.852;7.102;2023-12-14T06:49:45;8.20;99.90
10802;DHT22;5453;50.852;7.102;2023-12-14T06:52:18;8.20;99.90
10802;DHT22;5453;50.852;7.102;2023-12-14T06:54:51;8.20;99.90
10802;DHT22;5453;50.852;7.102;2023-12-14T06:57:26;8.20;99.90
10802;DHT22;5453;50.852;7.102;2023-12-14T07:00:01;8.20;99.90
10802;DHT22;5453;50.852;7.102;2023-12-14T07:02:34;8.10;99.90
10802;DHT22;5453;50.852;7.102;2023-12-14T07:05:06;8.10;99.90
10802;DHT22;5453;50.852;7.102;2023-12-14T07:07:40;8.10;99.90
10802;DHT22;5453;50.852;7.102;2023-12-14T07:10:12;8.10;99.90
10802;DHT22;5453;50.852;7.102;2023-12-14T07:12:45;8.00;99.90
10802;DHT22;5453;50.852;7.102;2023-12-14T07:15:19;8.00;99.90
10802;DHT22;5453;50.852;7.102;2023-12-14T07:17:51;8.00;99.90
10802;DHT22;5453;50.852;7.102;2023-12-14T07:20:23;8.00;99.90
10802;DHT22;5453;50.852;7.102;2023-12-14T07:22:56;8.00;99.90
10802;DHT22;5453;50.852;7.102;2023-12-14T07:25:31;8.00;99.90
10802;DHT22;5453;50.852;7.102;2023-12-14T07:28:04;8.00;99.90
10802;DHT22;5453;50.852;7.102;2023-12-14T07:30:38;8.00;99.90
10802;DHT22;5453;50.852;7.102;2023-12-14T07:33:10;7.90;99.90
10802;DHT22;5453;50.852;7.102;2023-12-14T07:35:42;7.90;99.90
10802;DHT22;5453;50.852;7.102;2023-12-14T07:38:15;8.00;99.90
10802;DHT22;5453;50.852;7.102;2023-12-14T07:40:47;8.00;99.90
10802;DHT22;5453;50.852;7.102;2023-12-14T07:43:24;7.90;99.90
10802;DHT22;5453;50.852;7.102;2023-12-14T07:45:58;7.90;99.90
10802;DHT22;5453;50.852;7.102;2023-12-14T07:48:30;7.90;99.90
10802;DHT22;5453;50.852;7.102;2023-12-14T07:51:03;7.90;99.90
10802;DHT22;5453;50.852;7.102;2023-12-14T07:53:36;7.90;99.90
10802;DHT22;5453;50.852;7.102;2023-12-14T07:56:09;7.90;99.90
10802;DHT22;5453;50.852;7.102;2023-12-14T07:58:41;7.90;99.90
10802;DHT22;5453;50.852;7.102;2023-12-14T08:01:15;7.90;99.90
10802;DHT22;5453;50.852;7.102;2023-12-14T08:03:47;7.90;99.90
10802;DHT22;5453;50.852;7.102;2023-12-14T08:06:19;7.90;99.90
10802;DHT22;5453;50.852;7.102;2023-12-14T08:08:52;7.90;99.90
10802;DHT22;5453;50.852;7.102;2023-12-14T08:11:24;7.90;99.90
10802;DHT22;5453;50.852;7.102;2023-12-14T08:13:57;7.90;99.90
10802;DHT22;5453;50.852;7.102;2023-12-14T08:16:30;7.90;99.90
10802;DHT22;5453;50.852;7.102;2023-12-14T08:19:03;7.90;99.90
10802;DHT22;5453;50.852;7.102;2023-12-14T08:21:35;7.80;99.90
10802;DHT22;5453;50.852;7.102;2023-12-14T08:24:07;7.80;99.90
10802;DHT22;5453;50.852;7.102;2023-12-14T08:26:40;7.80;99.90
10802;DHT22;5453;50.852;7.102;2023-12-14T08:29:12;7.80;99.90
10802;DHT22;5453;50.852;7.102;2023-12-14T08:31:47;7.80;99.90
10802;DHT22;5453;50.852;7.102;2023-12-14T08:34:20;7.70;99.90
10802;DHT22;5453;50.852;7.102;2023-12-14T08:36:52;7.70;99.90
10802;DHT22;5453;50.852;7.102;2023-12-14T08:39:25;7.70;99.90
10802;DHT22;5453;50.852;7.102;2023-12-14T08:41:57;7.60;99.90
10802;DHT22;5453;50.852;7.102;2023-12-14T08:44:30;7.60;99.90
10802;DHT22;5453;50.852;7.102;2023-12-14T08:47:04;7.60;99.90
10802;DHT22;5453;50.852;7.102;2023-12-14T08:49:39;7.60;99.90
10802;DHT22;5453;50.852;7.102;2023-12-14T08:52:12;7.60;99.90
10802;DHT22;5453;50.852;7.102;2023-12-14T08:54:45;7.60;99.90
10802;DHT22;5453;50.852;7.102;2023-12-14T08:57:17;7.60;99.90
10802;DHT22;5453;50.852;7.102;2023-12-14T08:59:49;8.00;99.90
10802;DHT22;5453;50.852;7.102;2023-12-14T09:02:23;8.50;99.90
10802;DHT22;5453;50.852;7.102;2023-12-14T09:04:56;8.50;99.90
10802;DHT22;5453;50.852;7.102;2023-12-14T09:07:28;8.40;99.90
10802;DHT22;5453;50.852;7.102;2023-12-14T09:10:00;8.20;99.90
10802;DHT22;5453;50.852;7.102;2023-12-14T09:12:33;8.10;99.90
10802;DHT22;5453;50.852;7.102;2023-12-14T09:15:06;8.00;99.90
10802;DHT22;5453;50.852;7.102;2023-12-14T09:17:41;7.90;99.90
10802;DHT22;5453;50.852;7.102;2023-12-14T09:20:13;7.80;99.90
10802;DHT22;5453;50.852;7.102;2023-12-14T09:22:46;7.80;99.90
10802;DHT22;5453;50.852;7.102;2023-12-14T09:25:18;7.70;99.90
10802;DHT22;5453;50.852;7.102;2023-12-14T09:27:51;7.60;99.90
10802;DHT22;5453;50.852;7.102;2023-12-14T09:30:23;7.60;99.90
10802;DHT22;5453;50.852;7.102;2023-12-14T09:32:57;7.60;99.90
10802;DHT22;5453;50.852;7.102;2023-12-14T09:35:29;7.50;99.90
10802;DHT22;5453;50.852;7.102;2023-12-14T09:38:07;7.50;99.90
10802;DHT22;5453;50.852;7.102;2023-12-14T09:40:50;7.50;99.90
10802;DHT22;5453;50.852;7.102;2023-12-14T09:43:22;7.50;99.90
10802;DHT22;5453;50.852;7.102;2023-12-14T09:45:55;7.50;99.90
10802;DHT22;5453;50.852;7.102;2023-12-14T09:48:29;7.40;99.90
10802;DHT22;5453;50.852;7.102;2023-12-14T09:51:04;7.40;99.90
10802;DHT22;5453;50.852;7.102;2023-12-14T09:53:37;7.40;99.90
10802;DHT22;5453;50.852;7.102;2023-12-14T09:56:09;7.40;99.90
10802;DHT22;5453;50.852;7.102;2023-12-14T09:58:42;7.40;99.90
10802;DHT22;5453;50.852;7.102;2023-12-14T10:01:22;7.40;99.90
10802;DHT22;5453;50.852;7.102;2023-12-14T10:04:10;7.40;99.90
10802;DHT22;5453;50.852;7.102;2023-12-14T10:06:44;7.40;99.90
10802;DHT22;5453;50.852;7.102;2023-12-14T10:09:23;7.40;99.90
10802;DHT22;5453;50.852;7.102;2023-12-14T10:12:03;7.40;99.90
10802;DHT22;5453;50.852;7.102;2023-12-14T10:14:37;7.40;99.90
10802;DHT22;5453;50.852;7.102;2023-12-14T10:17:18;7.40;99.90
10802;DHT22;5453;50.852;7.102;2023-12-14T10:19:52;7.40;99.90
10802;DHT22;5453;50.852;7.102;2023-12-14T10:22:26;7.40;99.90
10802;DHT22;5453;50.852;7.102;2023-12-14T10:25:04;7.40;99.90
10802;DHT22;5453;50.852;7.102;2023-12-14T10:27:40;7.40;99.90
10802;DHT22;5453;50.852;7.102;2023-12-14T10:30:14;7.40;99.90
10802;DHT22;5453;50.852;7.102;2023-12-14T10:32:47;7.30;99.90
10802;DHT22;5453;50.852;7.102;2023-12-14T10:35:22;7.30;99.90
10802;DHT22;5453;50.852;7.102;2023-12-14T10:37:56;7.30;99.90
10802;DHT22;5453;50.852;7.102;2023-12-14T10:40:31;7.20;99.90
10802;DHT22;5453;50.852;7.102;2023-12-14T10:43:04;7.30;99.90
10802;DHT22;5453;50.852;7.102;2023-12-14T10:45:38;7.20;99.90
10802;DHT22;5453;50.852;7.102;2023-12-14T10:48:11;7.20;99.90
10802;DHT22;5453;50.852;7.102;2023-12-14T10:50:45;7.30;99.90
10802;DHT22;5453;50.852;7.102;2023-12-14T10:53:18;7.20;99.90
10802;DHT22;5453;50.852;7.102;2023-12-14T10:55:51;7.20;99.90
10802;DHT22;5453;50.852;7.102;2023-12-14T10:58:24;7.30;99.90
10802;DHT22;5453;50.852;7.102;2023-12-14T11:01:00;7.40;99.90
10802;DHT22;5453;50.852;7.102;2023-12-14T11:03:33;7.40;99.90
10802;DHT22;5453;50.852;7.102;2023-12-14T11:06:20;7.40;99.90
10802;DHT22;5453;50.852;7.102;2023-12-14T11:08:55;7.40;99.90
10802;DHT22;5453;50.852;7.102;2023-12-14T11:11:29;7.30;99.90
10802;DHT22;5453;50.852;7.102;2023-12-14T11:14:01;7.30;99.90
10802;DHT22;5453;50.852;7.102;2023-12-14T11:16:36;7.30;99.90
10802;DHT22;5453;50.852;7.102;2023-12-14T11:19:33;7.20;99.90
10802;DHT22;5453;50.852;7.102;2023-12-14T11:22:27;7.20;99.90
10802;DHT22;5453;50.852;7.102;2023-12-14T11:25:01;7.20;99.90
10802;DHT22;5453;50.852;7.102;2023-12-14T11:27:42;7.10;99.90
10802;DHT22;5453;50.852;7.102;2023-12-14T11:30:15;7.20;99.90
10802;DHT22;5453;50.852;7.102;2023-12-14T11:32:48;7.20;99.90
10802;DHT22;5453;50.852;7.102;2023-12-14T11:35:21;7.30;99.90
10802;DHT22;5453;50.852;7.102;2023-12-14T11:37:55;7.30;99.90
10802;DHT22;5453;50.852;7.102;2023-12-14T11:40:28;7.30;99.90
10802;DHT22;5453;50.852;7.102;2023-12-14T11:43:02;7.40;99.90
10802;DHT22;5453;50.852;7.102;2023-12-14T11:45:39;7.40;99.90
10802;DHT22;5453;50.852;7.102;2023-12-14T11:48:12;7.40;99.90
10802;DHT22;5453;50.852;7.102;2023-12-14T11:50:45;7.40;99.90
10802;DHT22;5453;50.852;7.102;2023-12-14T11:53:19;7.30;99.90
10802;DHT22;5453;50.852;7.102;2023-12-14T11:55:52;7.30;99.90
10802;DHT22;5453;50.852;7.102;2023-12-14T11:58:25;7.20;99.90
10802;DHT22;5453;50.852;7.102;2023-12-14T12:01:11;7.20;99.90
10802;DHT22;5453;50.852;7.102;2023-12-14T12:03:45;7.30;99.90
10802;DHT22;5453;50.852;7.102;2023-12-14T12:06:21;7.20;99.90
10802;DHT22;5453;50.852;7.102;2023-12-14T12:08:55;7.30;99.90
10802;DHT22;5453;50.852;7.102;2023-12-14T12:11:28;7.20;99.90
10802;DHT22;5453;50.852;7.102;2023-12-14T12:14:00;7.20;99.90
10802;DHT22;5453;50.852;7.102;2023-12-14T12:16:32;7.20;99.90
10802;DHT22;5453;50.852;7.102;2023-12-14T12:19:05;7.20;99.90
10802;DHT22;5453;50.852;7.102;2023-12-14T12:21:38;7.20;99.90
10802;DHT22;5453;50.852;7.102;2023-12-14T12:24:11;7.10;99.90
10802;DHT22;5453;50.852;7.102;2023-12-14T12:26:44;7.10;99.90
10802;DHT22;5453;50.852;7.102;2023-12-14T12:29:16;7.20;99.90
10802;DHT22;5453;50.852;7.102;2023-12-14T12:31:48;7.20;99.90
10802;DHT22;5453;50.852;7.102;2023-12-14T12:34:22;7.20;99.90
10802;DHT22;5453;50.852;7.102;2023-12-14T12:36:54;7.20;99.90
10802;DHT22;5453;50.852;7.102;2023-12-14T12:39:29;7.10;99.90
10802;DHT22;5453;50.852;7.102;2023-12-14T12:42:02;7.20;99.90
10802;DHT22;5453;50.852;7.102;2023-12-14T12:44:34;7.10;99.90
10802;DHT22;5453;50.852;7.102;2023-12-14T12:47:07;7.20;99.90
10802;DHT22;5453;50.852;7.102;2023-12-14T12:49:39;7.10;99.90
10802;DHT22;5453;50.852;7.102;2023-12-14T12:52:14;7.20;99.90
10802;DHT22;5453;50.852;7.102;2023-12-14T12:54:48;7.20;99.90
10802;DHT22;5453;50.852;7.102;2023-12-14T12:57:20;7.20;99.90
10802;DHT22;5453;50.852;7.102;2023-12-14T12:59:53;7.20;99.90
10802;DHT22;5453;50.852;7.102;2023-12-14T13:02:25;7.20;99.90
10802;DHT22;5453;50.852;7.102;2023-12-14T13:04:57;7.20;99.90
10802;DHT22;5453;50.852;7.102;2023-12-14T13:07:30;7.20;99.90
10802;DHT22;5453;50.852;7.102;2023-12-14T13:10:05;7.20;99.90
10802;DHT22;5453;50.852;7.102;2023-12-14T13:12:38;7.20;99.90
10802;DHT22;5453;50.852;7.102;2023-12-14T13:15:11;7.20;99.90
10802;DHT22;5453;50.852;7.102;2023-12-14T13:17:43;7.20;99.90
10802;DHT22;5453;50.852;7.102;2023-12-14T13:20:15;7.20;99.90
10802;DHT22;5453;50.852;7.102;2023-12-14T13:22:49;7.20;99.90
10802;DHT22;5453;50.852;7.102;2023-12-14T13:25:22;7.20;99.90
10802;DHT22;5453;50.852;7.102;2023-12-14T13:27:57;7.20;99.90
10802;DHT22;5453;50.852;7.102;2023-12-14T13:30:29;7.30;99.90
10802;DHT22;5453;50.852;7.102;2023-12-14T13:33:01;7.40;99.90
10802;DHT22;5453;50.852;7.102;2023-12-14T13:35:34;7.50;99.90
10802;DHT22;5453;50.852;7.102;2023-12-14T13:38:07;7.40;99.90
10802;DHT22;5453;50.852;7.102;2023-12-14T13:40:41;7.40;99.90
10802;DHT22;5453;50.852;7.102;2023-12-14T13:43:13;7.40;99.90
10802;DHT22;5453;50.852;7.102;2023-12-14T13:45:45;7.40;99.90
10802;DHT22;5453;50.852;7.102;2023-12-14T13:48:21;7.30;99.90
10802;DHT22;5453;50.852;7.102;2023-12-14T13:50:54;7.30;99.90
10802;DHT22;5453;50.852;7.102;2023-12-14T13:53:26;7.30;99.90
10802;DHT22;5453;50.852;7.102;2023-12-14T13:56:00;7.30;99.90
10802;DHT22;5453;50.852;7.102;2023-12-14T13:58:33;7.30;99.90
10802;DHT22;5453;50.852;7.102;2023-12-14T14:01:09;7.30;99.90
10802;DHT22;5453;50.852;7.102;2023-12-14T14:03:41;7.20;99.90
10802;DHT22;5453;50.852;7.102;2023-12-14T14:06:14;7.30;99.90
10802;DHT22;5453;50.852;7.102;2023-12-14T14:08:46;7.30;99.90
10802;DHT22;5453;50.852;7.102;2023-12-14T14:11:20;7.20;99.90
10802;DHT22;5453;50.852;7.102;2023-12-14T14:13:53;7.20;99.90
10802;DHT22;5453;50.852;7.102;2023-12-14T14:16:28;7.30;99.90
10802;DHT22;5453;50.852;7.102;2023-12-14T14:19:02;7.20;99.90
10802;DHT22;5453;50.852;7.102;2023-12-14T14:21:34;7.20;99.90
10802;DHT22;5453;50.852;7.102;2023-12-14T14:24:10;7.20;99.90
10802;DHT22;5453;50.852;7.102;2023-12-14T14:26:43;7.20;99.90
10802;DHT22;5453;50.852;7.102;2023-12-14T14:29:16;7.20;99.90
10802;DHT22;5453;50.852;7.102;2023-12-14T14:31:49;7.20;99.90
10802;DHT22;5453;50.852;7.102;2023-12-14T14:34:22;7.20;99.90
10802;DHT22;5453;50.852;7.102;2023-12-14T14:36:54;7.20;99.90
10802;DHT22;5453;50.852;7.102;2023-12-14T14:39:27;7.20;99.90
10802;DHT22;5453;50.852;7.102;2023-12-14T14:42:01;7.10;99.90
10802;DHT22;5453;50.852;7.102;2023-12-14T14:44:34;7.10;99.90
10802;DHT22;5453;50.852;7.102;2023-12-14T14:47:06;7.10;99.90
10802;DHT22;5453;50.852;7.102;2023-12-14T14:49:39;7.10;99.90
10802;DHT22;5453;50.852;7.102;2023-12-14T14:52:14;7.10;99.90
10802;DHT22;5453;50.852;7.102;2023-12-14T14:54:47;7.10;99.90
10802;DHT22;5453;50.852;7.102;2023-12-14T14:57:21;7.10;99.90
10802;DHT22;5453;50.852;7.102;2023-12-14T14:59:54;7.10;99.90
10802;DHT22;5453;50.852;7.102;2023-12-14T15:02:29;7.10;99.90
10802;DHT22;5453;50.852;7.102;2023-12-14T15:05:02;7.10;99.90
10802;DHT22;5453;50.852;7.102;2023-12-14T15:07:34;7.10;99.90
10802;DHT22;5453;50.852;7.102;2023-12-14T15:10:07;7.10;99.90
10802;DHT22;5453;50.852;7.102;2023-12-14T15:12:41;7.10;99.90
10802;DHT22;5453;50.852;7.102;2023-12-14T15:15:14;7.10;99.90
10802;DHT22;5453;50.852;7.102;2023-12-14T15:17:46;7.00;99.90
10802;DHT22;5453;50.852;7.102;2023-12-14T15:20:22;7.00;99.90
10802;DHT22;5453;50.852;7.102;2023-12-14T15:22:55;7.00;99.90
10802;DHT22;5453;50.852;7.102;2023-12-14T15:25:27;7.00;99.90
10802;DHT22;5453;50.852;7.102;2023-12-14T15:28:01;7.00;99.90
10802;DHT22;5453;50.852;7.102;2023-12-14T15:30:37;7.00;99.90
10802;DHT22;5453;50.852;7.102;2023-12-14T15:33:09;7.00;99.90
10802;DHT22;5453;50.852;7.102;2023-12-14T15:35:42;7.00;99.90
10802;DHT22;5453;50.852;7.102;2023-12-14T15:38:14;6.90;99.90
10802;DHT22;5453;50.852;7.102;2023-12-14T15:40:47;6.90;99.90
10802;DHT22;5453;50.852;7.102;2023-12-14T15:43:21;6.80;99.90
10802;DHT22;5453;50.852;7.102;2023-12-14T15:45:53;6.80;99.90
10802;DHT22;5453;50.852;7.102;2023-12-14T15:48:26;6.80;99.90
10802;DHT22;5453;50.852;7.102;2023-12-14T15:50:58;6.80;99.90
10802;DHT22;5453;50.852;7.102;2023-12-14T15:53:31;6.80;99.90
10802;DHT22;5453;50.852;7.102;2023-12-14T15:56:04;6.80;99.90
10802;DHT22;5453;50.852;7.102;2023-12-14T15:58:42;6.80;99.90
10802;DHT22;5453;50.852;7.102;2023-12-14T16:01:16;6.70;99.90
10802;DHT22;5453;50.852;7.102;2023-12-14T16:03:48;6.70;99.90
10802;DHT22;5453;50.852;7.102;2023-12-14T16:06:21;6.70;99.90
10802;DHT22;5453;50.852;7.102;2023-12-14T16:08:53;6.70;99.90
10802;DHT22;5453;50.852;7.102;2023-12-14T16:11:26;6.70;99.90
10802;DHT22;5453;50.852;7.102;2023-12-14T16:14:00;6.70;99.90
10802;DHT22;5453;50.852;7.102;2023-12-14T16:16:32;6.70;99.90
10802;DHT22;5453;50.852;7.102;2023-12-14T16:19:05;6.70;99.90
10802;DHT22;5453;50.852;7.102;2023-12-14T16:21:37;6.70;99.90
10802;DHT22;5453;50.852;7.102;2023-12-14T16:24:10;6.60;99.90
10802;DHT22;5453;50.852;7.102;2023-12-14T16:26:42;6.60;99.90
10802;DHT22;5453;50.852;7.102;2023-12-14T16:29:18;6.60;99.90
10802;DHT22;5453;50.852;7.102;2023-12-14T16:31:50;6.60;99.90
10802;DHT22;5453;50.852;7.102;2023-12-14T16:34:23;6.60;99.90
10802;DHT22;5453;50.852;7.102;2023-12-14T16:36:55;6.60;99.90
10802;DHT22;5453;50.852;7.102;2023-12-14T16:39:28;6.60;99.90
10802;DHT22;5453;50.852;7.102;2023-12-14T16:42:00;6.60;99.90